Terminal Aerodrome Forecast
Issued by NWS Atlanta, GA

Home | Current Version | Previous Version | Text Only | Print | Product List | Glossary On
Versions: 1 2 3 4 5 6 7 8 9 10 11 12 13 14 15 16 17 18 19 20 21 22 23 24 25 26 27 28 29 30 31 32 33 34 35 36 37 38 39
000
FTUS42 KFFC 220147 AAA
TAFATL
TAF AMD
KATL 220147Z 2202/2306 09008KT 3SM -RA BR SCT025 BKN030
     FM220400 09008KT 3SM -RA BR OVC015
     FM220600 09008KT 3SM -RA BR OVC007
     FM220900 09008KT 2SM -RA BR OVC003
     FM221500 09010KT 5SM -RA BR OVC007
     FM221800 08008KT P6SM OVC012
     FM230000 07010KT 4SM BR OVC010=

USA.gov is the U.S. government's official web portal to all federal, state and local government web resources and services.